Time;durP1;ratioP1;P1;durP2;ratioP2;P2;SDS_P1;SDS_P2;PMS_P1;PMS_P2;Temp;Humidity;BMP_temperature;BMP_pressure;BME280_temperature;BME280_humidity;BME280_pressure;Samples;Min_cycle;Max_cycle;Signal;HPM_P1;HPM_P2
2022/07/08 00:01:22;;;;;;;2.30;2.10;;;16.70;99.90;;;;;;4975890;28;20272;-89
2022/07/08 00:03:47;;;;;;;4.33;2.10;;;16.60;99.90;;;;;;4977012;28;21068;-89
2022/07/08 00:06:13;;;;;;;3.30;2.30;;;16.50;99.90;;;;;;4976951;28;20774;-90
2022/07/08 00:08:38;;;;;;;2.00;1.80;;;16.50;99.90;;;;;;4969865;28;20247;-88
2022/07/08 00:11:04;;;;;;;4.07;2.10;;;16.50;99.90;;;;;;4977443;28;20357;-89
2022/07/08 00:13:31;;;;;;;2.97;2.23;;;16.50;99.90;;;;;;4980230;28;20231;-89
2022/07/08 00:15:56;;;;;;;3.03;2.57;;;16.60;99.90;;;;;;4983391;28;20193;-89
2022/07/08 00:18:24;;;;;;;4.30;2.47;;;16.50;99.90;;;;;;5000009;28;20443;-90
2022/07/08 00:20:50;;;;;;;5.43;2.43;;;16.50;99.90;;;;;;4981744;28;20234;-91
2022/07/08 00:23:15;;;;;;;4.63;2.50;;;16.30;99.90;;;;;;4977776;28;20861;-91
2022/07/08 00:25:41;;;;;;;6.33;3.80;;;16.30;99.90;;;;;;4980230;28;21212;-91
2022/07/08 00:28:07;;;;;;;3.17;2.40;;;16.30;99.90;;;;;;4977574;28;20637;-92
2022/07/08 00:30:32;;;;;;;3.23;2.30;;;16.30;99.90;;;;;;4974901;28;20548;-91
2022/07/08 00:32:58;;;;;;;4.77;2.87;;;16.30;99.90;;;;;;4979457;28;20697;-90
2022/07/08 00:35:23;;;;;;;6.20;2.50;;;16.20;99.90;;;;;;4974120;28;21868;-90
2022/07/08 00:37:49;;;;;;;4.90;2.67;;;16.20;99.90;;;;;;4975893;28;20187;-90
2022/07/08 00:40:14;;;;;;;5.03;2.63;;;16.20;99.90;;;;;;4992174;28;20189;-91
2022/07/08 00:42:40;;;;;;;6.43;3.13;;;16.10;99.90;;;;;;5006035;28;20204;-90
2022/07/08 00:45:06;;;;;;;2.67;2.47;;;16.10;99.90;;;;;;5037069;28;20450;-89
2022/07/08 00:47:31;;;;;;;3.63;2.60;;;16.10;99.90;;;;;;5002777;28;20169;-90
2022/07/08 00:49:57;;;;;;;5.33;3.10;;;16.10;99.90;;;;;;4978760;28;20483;-89
2022/07/08 00:52:24;;;;;;;4.93;2.67;;;16.00;99.90;;;;;;4974386;28;20190;-89
2022/07/08 00:54:52;;;;;;;3.30;2.70;;;15.90;99.90;;;;;;4978964;28;20225;-90
2022/07/08 00:57:18;;;;;;;6.20;3.70;;;15.80;99.90;;;;;;4977805;28;20439;-89
2022/07/08 00:59:43;;;;;;;5.23;3.27;;;15.80;99.90;;;;;;4975404;28;20451;-90
2022/07/08 01:02:09;;;;;;;5.40;2.90;;;15.70;99.90;;;;;;4976671;28;20189;-89
2022/07/08 01:04:35;;;;;;;7.50;3.23;;;15.60;99.90;;;;;;4979472;28;20184;-89
2022/07/08 01:07:00;;;;;;;8.20;3.53;;;15.60;99.90;;;;;;4978273;28;20510;-89
2022/07/08 01:09:26;;;;;;;4.53;3.80;;;15.40;99.90;;;;;;4989950;28;20242;-91
2022/07/08 01:11:52;;;;;;;6.00;4.13;;;15.40;99.90;;;;;;4980037;28;20264;-89
2022/07/08 01:14:18;;;;;;;4.03;3.63;;;15.20;99.90;;;;;;4979239;28;20220;-88
2022/07/08 01:16:44;;;;;;;4.80;4.27;;;15.10;99.90;;;;;;4973121;28;20459;-88
2022/07/08 01:19:09;;;;;;;8.47;4.40;;;15.10;99.90;;;;;;4979164;28;20638;-88
2022/07/08 01:21:35;;;;;;;10.83;4.20;;;15.10;99.90;;;;;;4973610;28;20209;-88
2022/07/08 01:24:00;;;;;;;8.17;4.50;;;15.10;99.90;;;;;;4975549;28;20698;-88
2022/07/08 01:26:27;;;;;;;6.17;4.20;;;15.00;99.90;;;;;;4983398;28;20185;-89
2022/07/08 01:28:52;;;;;;;6.67;3.80;;;14.80;99.90;;;;;;4978931;28;20196;-89
2022/07/08 01:31:18;;;;;;;5.13;3.97;;;14.70;99.90;;;;;;4979682;28;20444;-89
2022/07/08 01:33:43;;;;;;;7.90;4.43;;;14.70;99.90;;;;;;4974135;28;20195;-89
2022/07/08 01:36:09;;;;;;;4.83;4.30;;;14.70;99.90;;;;;;4977970;28;20189;-89
2022/07/08 01:38:35;;;;;;;7.37;4.70;;;14.60;99.90;;;;;;4975246;28;20831;-88
2022/07/08 01:41:00;;;;;;;7.00;4.70;;;14.60;99.90;;;;;;4978948;28;20181;-88
2022/07/08 01:43:26;;;;;;;5.27;4.13;;;14.60;99.90;;;;;;4994309;28;20208;-88
2022/07/08 01:45:51;;;;;;;8.40;4.20;;;14.60;99.90;;;;;;5000672;28;20284;-89
2022/07/08 01:48:17;;;;;;;6.07;3.93;;;14.60;99.90;;;;;;4975112;28;20505;-89
2022/07/08 01:50:43;;;;;;;6.40;4.90;;;14.50;99.90;;;;;;4975028;28;20429;-87
2022/07/08 01:53:09;;;;;;;9.33;4.70;;;14.40;99.90;;;;;;4976890;28;20177;-88
2022/07/08 01:55:34;;;;;;;6.73;4.83;;;14.30;99.90;;;;;;4974281;28;20271;-88
2022/07/08 01:58:00;;;;;;;7.20;4.70;;;14.40;99.90;;;;;;4980942;28;20534;-87
2022/07/08 02:00:25;;;;;;;6.30;5.10;;;14.30;99.90;;;;;;4972208;28;20190;-87
2022/07/08 02:02:51;;;;;;;5.13;4.70;;;14.20;99.90;;;;;;4980167;28;20211;-88
2022/07/08 02:05:16;;;;;;;6.20;4.57;;;14.10;99.90;;;;;;4980241;28;20212;-89
2022/07/08 02:07:42;;;;;;;7.00;4.43;;;14.10;99.90;;;;;;4968891;28;20200;-90
2022/07/08 02:10:09;;;;;;;5.43;4.90;;;14.10;99.90;;;;;;4975631;28;20695;-90
2022/07/08 02:12:35;;;;;;;10.30;4.47;;;14.00;99.90;;;;;;4967899;28;20446;-89
2022/07/08 02:15:03;;;;;;;8.03;4.60;;;14.00;99.90;;;;;;4974655;28;20440;-88
2022/07/08 02:17:31;;;;;;;10.27;5.00;;;13.90;99.90;;;;;;4986292;28;20836;-88
2022/07/08 02:19:58;;;;;;;7.00;4.83;;;13.90;99.90;;;;;;4976583;28;20658;-88
2022/07/08 02:22:24;;;;;;;5.70;4.50;;;13.90;99.90;;;;;;4979652;28;20443;-88
2022/07/08 02:24:50;;;;;;;5.33;3.90;;;13.80;99.90;;;;;;4974567;28;20579;-89
2022/07/08 02:27:17;;;;;;;4.80;4.20;;;13.80;99.90;;;;;;4980028;28;20685;-88
2022/07/08 02:29:42;;;;;;;4.97;3.83;;;13.90;99.90;;;;;;4992532;28;21537;-89
2022/07/08 02:32:08;;;;;;;4.93;3.60;;;13.80;99.90;;;;;;4988957;28;20984;-88
2022/07/08 02:34:35;;;;;;;6.80;4.23;;;13.80;99.90;;;;;;4951711;28;20213;-88
2022/07/08 02:37:01;;;;;;;4.70;4.30;;;13.80;99.90;;;;;;4991002;28;21476;-89
2022/07/08 02:39:27;;;;;;;5.50;4.23;;;13.80;99.90;;;;;;4978080;28;20204;-89
2022/07/08 02:41:53;;;;;;;7.20;3.83;;;13.90;99.90;;;;;;4977500;28;20197;-89
2022/07/08 02:44:18;;;;;;;8.97;4.30;;;13.90;99.90;;;;;;4976380;28;20459;-89
2022/07/08 02:46:45;;;;;;;4.10;3.60;;;13.90;99.90;;;;;;4971967;28;20204;-89
2022/07/08 02:49:11;;;;;;;5.60;3.80;;;13.90;99.90;;;;;;4973892;28;20219;-88
2022/07/08 02:51:37;;;;;;;7.93;3.57;;;13.90;99.90;;;;;;4994360;28;20463;-89
2022/07/08 02:54:04;;;;;;;5.20;3.90;;;13.90;99.90;;;;;;4978139;28;20185;-88
2022/07/08 02:56:30;;;;;;;6.47;4.07;;;13.90;99.90;;;;;;4976503;28;20452;-88
2022/07/08 02:58:56;;;;;;;7.23;4.37;;;14.00;99.90;;;;;;4978503;28;20448;-88
2022/07/08 03:01:22;;;;;;;7.63;4.20;;;13.90;99.90;;;;;;4973166;28;20619;-90
2022/07/08 03:03:47;;;;;;;11.47;3.90;;;13.90;99.90;;;;;;4975620;28;20473;-88
2022/07/08 03:06:13;;;;;;;5.33;3.70;;;14.00;99.90;;;;;;4978662;28;20220;-88
2022/07/08 03:08:39;;;;;;;5.43;3.50;;;13.90;99.90;;;;;;4971746;28;20212;-89
2022/07/08 03:11:05;;;;;;;4.70;4.00;;;13.90;99.90;;;;;;4998121;28;20189;-88
2022/07/08 03:13:31;;;;;;;4.00;3.20;;;13.90;99.90;;;;;;4977984;28;20449;-88
2022/07/08 03:15:57;;;;;;;6.00;4.10;;;13.80;99.90;;;;;;4993983;28;20467;-88
2022/07/08 03:18:24;;;;;;;6.00;4.13;;;13.80;99.90;;;;;;4979994;28;20189;-87
2022/07/08 03:20:49;;;;;;;6.50;3.50;;;13.80;99.90;;;;;;4976776;28;20728;-88
2022/07/08 03:23:15;;;;;;;4.33;3.97;;;13.80;99.90;;;;;;4973720;28;20677;-88
2022/07/08 03:25:41;;;;;;;5.93;3.87;;;13.80;99.90;;;;;;4975990;28;20693;-88
2022/07/08 03:28:07;;;;;;;7.77;4.43;;;13.90;99.90;;;;;;4977050;28;20444;-88
2022/07/08 03:30:32;;;;;;;8.10;3.70;;;14.00;99.90;;;;;;4971511;28;20899;-89
2022/07/08 03:32:58;;;;;;;3.83;3.03;;;14.00;99.90;;;;;;4982275;28;20189;-89
2022/07/08 03:35:24;;;;;;;4.43;3.50;;;14.00;99.90;;;;;;4975725;28;20196;-88
2022/07/08 03:37:49;;;;;;;3.30;3.07;;;14.00;99.90;;;;;;4965334;28;20949;-88
2022/07/08 03:43:00;;;;;;;8.03;3.70;;;14.10;99.90;;;;;;4995390;28;20223;-87
2022/07/08 03:45:26;;;;;;;4.90;3.20;;;14.10;99.90;;;;;;4975353;28;20530;-88
2022/07/08 03:47:52;;;;;;;3.77;3.20;;;14.10;99.90;;;;;;4972758;28;20448;-88
2022/07/08 03:50:18;;;;;;;4.30;3.73;;;14.10;99.90;;;;;;4993807;28;20454;-88
2022/07/08 03:52:45;;;;;;;5.77;3.50;;;14.00;99.90;;;;;;4973636;28;20191;-89
2022/07/08 03:55:11;;;;;;;5.80;3.63;;;14.10;99.90;;;;;;4984674;28;20439;-88
2022/07/08 03:57:37;;;;;;;11.00;3.57;;;14.10;99.90;;;;;;4969771;28;20534;-88
2022/07/08 04:00:06;;;;;;;4.50;3.43;;;14.30;99.90;;;;;;4967329;28;20456;-88
2022/07/08 04:02:32;;;;;;;5.37;3.30;;;14.30;99.90;;;;;;4964735;28;21028;-88
2022/07/08 04:04:58;;;;;;;5.23;3.60;;;14.40;99.90;;;;;;4971240;28;20483;-88
2022/07/08 04:07:23;;;;;;;5.50;3.30;;;14.40;99.90;;;;;;4991795;28;20232;-89
2022/07/08 04:09:49;;;;;;;5.47;3.50;;;14.30;99.90;;;;;;4970526;28;20196;-89
2022/07/08 04:12:14;;;;;;;4.23;3.10;;;14.30;99.90;;;;;;4976846;28;20181;-89
2022/07/08 04:14:40;;;;;;;5.03;4.33;;;14.30;99.90;;;;;;4973828;28;20532;-89
2022/07/08 04:17:05;;;;;;;6.30;3.30;;;14.30;99.90;;;;;;4970360;28;20318;-90
2022/07/08 04:19:31;;;;;;;5.43;3.30;;;14.20;99.90;;;;;;4977236;28;20187;-90
2022/07/08 04:21:56;;;;;;;6.77;4.10;;;14.30;99.90;;;;;;4975289;28;20857;-89
2022/07/08 04:24:22;;;;;;;6.33;3.03;;;14.30;99.90;;;;;;4978065;28;20209;-89
2022/07/08 04:26:48;;;;;;;4.70;3.20;;;14.30;99.90;;;;;;4974159;28;20606;-89
2022/07/08 04:29:13;;;;;;;8.57;3.30;;;14.40;99.90;;;;;;4977019;28;20185;-89
2022/07/08 04:31:39;;;;;;;7.40;3.47;;;14.50;99.90;;;;;;4973529;28;20670;-89
2022/07/08 04:34:04;;;;;;;5.80;3.10;;;14.60;99.90;;;;;;4977883;28;20290;-90
2022/07/08 04:36:31;;;;;;;5.40;3.80;;;14.60;99.90;;;;;;4975663;28;20692;-89
2022/07/08 04:38:56;;;;;;;3.67;3.37;;;14.60;99.90;;;;;;4974923;28;20181;-89
2022/07/08 04:41:22;;;;;;;3.60;3.03;;;14.70;99.90;;;;;;4974230;28;20799;-89
2022/07/08 04:43:48;;;;;;;3.70;3.13;;;14.60;99.90;;;;;;4971617;28;20626;-89
2022/07/08 04:46:13;;;;;;;5.27;3.83;;;14.80;99.90;;;;;;4987448;28;20200;-89
2022/07/08 04:48:40;;;;;;;4.13;3.67;;;14.80;99.90;;;;;;4980509;28;20570;-89
2022/07/08 04:51:06;;;;;;;4.87;3.10;;;14.80;99.90;;;;;;4976102;28;20185;-89
2022/07/08 04:53:31;;;;;;;7.07;3.80;;;14.90;99.90;;;;;;4977086;28;20435;-89
2022/07/08 04:55:57;;;;;;;6.23;3.67;;;14.80;99.90;;;;;;4991595;28;20886;-88
2022/07/08 04:58:23;;;;;;;7.07;3.30;;;14.60;99.90;;;;;;4976426;28;20220;-89
2022/07/08 05:00:48;;;;;;;7.63;4.63;;;14.60;99.90;;;;;;4982087;28;20212;-90
2022/07/08 05:03:14;;;;;;;7.60;4.50;;;14.40;99.90;;;;;;5007459;28;20182;-88
2022/07/08 05:05:39;;;;;;;4.07;3.43;;;14.30;99.90;;;;;;5006556;28;20273;-88
2022/07/08 05:08:05;;;;;;;5.50;4.10;;;14.30;99.90;;;;;;4992632;28;20527;-88
2022/07/08 05:10:31;;;;;;;9.90;4.00;;;14.30;99.90;;;;;;4992167;28;20177;-89
2022/07/08 05:12:57;;;;;;;5.43;3.40;;;14.30;99.90;;;;;;4983556;28;20444;-88
2022/07/08 05:15:24;;;;;;;4.97;3.17;;;14.30;99.90;;;;;;4996026;28;20287;-88
2022/07/08 05:17:52;;;;;;;7.47;3.53;;;14.30;99.90;;;;;;4970407;28;20475;-88
2022/07/08 05:20:18;;;;;;;5.30;3.03;;;14.20;99.90;;;;;;4982589;28;20440;-87
2022/07/08 05:22:43;;;;;;;7.40;3.77;;;14.30;99.90;;;;;;4976431;28;20458;-87
2022/07/08 05:25:10;;;;;;;4.20;3.40;;;14.40;99.90;;;;;;4986377;28;20252;-87
2022/07/08 05:27:36;;;;;;;6.40;3.10;;;14.30;99.90;;;;;;4976348;28;20196;-88
2022/07/08 05:30:04;;;;;;;11.10;3.47;;;14.40;99.90;;;;;;4972807;28;20444;-88
2022/07/08 05:32:29;;;;;;;5.73;3.77;;;14.50;99.90;;;;;;4992434;28;20180;-87
2022/07/08 05:34:55;;;;;;;6.47;4.07;;;14.60;99.90;;;;;;4974141;28;20452;-88
2022/07/08 05:37:21;;;;;;;3.57;3.10;;;14.60;99.90;;;;;;4995435;28;20181;-87
2022/07/08 05:39:46;;;;;;;5.20;3.40;;;14.70;99.90;;;;;;4980543;28;21160;-87
2022/07/08 05:42:12;;;;;;;6.70;3.40;;;14.80;99.90;;;;;;4989756;28;20180;-89
2022/07/08 05:44:39;;;;;;;4.50;2.90;;;14.70;99.90;;;;;;4979324;28;20217;-88
2022/07/08 05:47:09;;;;;;;4.93;3.20;;;14.80;99.90;;;;;;4976125;28;20198;-88
2022/07/08 05:49:36;;;;;;;4.40;2.57;;;14.80;99.90;;;;;;4991163;28;20494;-89
2022/07/08 05:52:06;;;;;;;4.60;3.20;;;14.80;99.90;;;;;;4981310;28;20459;-90
2022/07/08 05:54:32;;;;;;;10.20;3.30;;;14.80;99.90;;;;;;4971720;28;20463;-88
2022/07/08 05:56:58;;;;;;;4.70;2.60;;;14.80;99.90;;;;;;4971755;28;21537;-89
2022/07/08 05:59:24;;;;;;;7.03;3.00;;;14.70;99.90;;;;;;4979894;28;20535;-88
2022/07/08 06:01:49;;;;;;;4.70;2.53;;;14.70;99.90;;;;;;4964022;28;20978;-88
2022/07/08 06:04:15;;;;;;;6.53;2.70;;;14.90;99.90;;;;;;4961437;28;20212;-89
2022/07/08 06:06:41;;;;;;;2.53;2.33;;;15.00;99.90;;;;;;4964104;28;20275;-88
2022/07/08 06:09:06;;;;;;;5.40;2.90;;;15.00;99.90;;;;;;4975026;28;20205;-88
2022/07/08 06:11:32;;;;;;;5.47;2.30;;;15.00;99.90;;;;;;4965698;28;20892;-88
2022/07/08 06:13:57;;;;;;;5.60;2.90;;;15.00;99.90;;;;;;4964438;28;20181;-89
2022/07/08 06:16:23;;;;;;;4.97;2.23;;;15.10;99.90;;;;;;4977336;28;20196;-89
2022/07/08 06:18:49;;;;;;;4.27;2.50;;;15.10;99.90;;;;;;4972463;28;20186;-88
2022/07/08 06:21:15;;;;;;;5.27;2.33;;;15.00;99.90;;;;;;4985960;28;20204;-87
2022/07/08 06:23:40;;;;;;;4.00;2.40;;;15.10;99.90;;;;;;4960719;28;20465;-88
2022/07/08 06:26:06;;;;;;;6.50;2.40;;;15.20;99.90;;;;;;4966123;28;20188;-90
2022/07/08 06:28:31;;;;;;;4.60;2.50;;;15.10;99.90;;;;;;4971788;28;20231;-91
2022/07/08 06:30:57;;;;;;;5.60;2.50;;;15.20;99.90;;;;;;4976484;28;20332;-90
2022/07/08 06:33:23;;;;;;;5.13;2.63;;;15.40;99.90;;;;;;4978308;28;20196;-91
2022/07/08 06:35:48;;;;;;;4.63;2.60;;;15.30;99.90;;;;;;4968810;28;20490;-92
2022/07/08 06:38:17;;;;;;;5.93;2.50;;;15.60;99.90;;;;;;4977874;28;20181;-91
2022/07/08 06:40:43;;;;;;;5.07;2.40;;;15.80;99.90;;;;;;4976187;28;20228;-90
2022/07/08 06:43:08;;;;;;;8.97;2.80;;;15.90;99.90;;;;;;4976718;28;20515;-87
2022/07/08 06:45:34;;;;;;;3.70;2.63;;;16.20;99.90;;;;;;4962115;28;20303;-87
2022/07/08 06:48:01;;;;;;;5.40;2.30;;;16.20;99.90;;;;;;4972175;28;20188;-89
2022/07/08 06:50:27;;;;;;;7.80;2.57;;;16.10;99.90;;;;;;4970389;28;20462;-88
2022/07/08 06:52:53;;;;;;;7.00;2.63;;;16.10;99.90;;;;;;4973771;28;20448;-89
2022/07/08 06:55:18;;;;;;;3.80;2.03;;;16.50;99.90;;;;;;4969985;28;20475;-89
2022/07/08 06:57:44;;;;;;;6.23;3.00;;;16.70;99.00;;;;;;4975065;28;20181;-90
2022/07/08 07:00:10;;;;;;;6.17;2.50;;;16.60;99.90;;;;;;4982370;28;20185;-93
2022/07/08 07:02:36;;;;;;;7.43;2.70;;;17.00;99.50;;;;;;4972825;28;20292;-92
2022/07/08 07:05:02;;;;;;;4.03;2.10;;;17.40;99.90;;;;;;4980524;28;20479;-89
2022/07/08 07:07:27;;;;;;;4.67;3.10;;;17.60;98.80;;;;;;4978672;28;20287;-91
2022/07/08 07:09:53;;;;;;;4.50;2.73;;;17.50;97.20;;;;;;4970331;28;20663;-91
2022/07/08 07:12:20;;;;;;;3.80;2.00;;;17.20;98.60;;;;;;4976405;28;20564;-91
2022/07/08 07:14:46;;;;;;;4.27;2.43;;;17.10;97.80;;;;;;4973896;28;20448;-90
2022/07/08 07:17:12;;;;;;;5.80;3.00;;;17.20;98.40;;;;;;4974017;28;20436;-90
2022/07/08 07:19:41;;;;;;;3.70;2.93;;;16.90;97.90;;;;;;4977320;28;20193;-89
2022/07/08 07:22:06;;;;;;;4.73;2.20;;;16.70;98.60;;;;;;4975385;28;20547;-88
2022/07/08 07:24:32;;;;;;;3.80;2.23;;;16.50;97.80;;;;;;4968875;28;20483;-93
2022/07/08 07:26:57;;;;;;;3.57;2.00;;;16.70;98.20;;;;;;4971553;28;20185;-90
2022/07/08 07:29:23;;;;;;;5.00;1.77;;;16.80;97.80;;;;;;4970378;28;20196;-90
2022/07/08 07:31:49;;;;;;;3.53;2.10;;;16.70;96.60;;;;;;4972522;28;20488;-88
2022/07/08 07:34:15;;;;;;;4.90;2.00;;;16.50;96.30;;;;;;4983944;28;20220;-90
2022/07/08 07:36:40;;;;;;;8.07;2.40;;;17.00;97.10;;;;;;4976616;28;20189;-91
2022/07/08 07:39:07;;;;;;;4.63;2.43;;;17.30;96.10;;;;;;4990936;28;20526;-91
2022/07/08 07:41:33;;;;;;;3.80;2.20;;;17.40;97.50;;;;;;4966968;28;20239;-91
2022/07/08 07:43:58;;;;;;;6.37;3.00;;;17.40;96.20;;;;;;4984721;28;20467;-91
2022/07/08 07:46:24;;;;;;;6.33;2.93;;;17.40;97.00;;;;;;4972692;28;20197;-91
2022/07/08 07:48:49;;;;;;;3.83;2.53;;;17.30;96.60;;;;;;4979346;28;20189;-89
2022/07/08 07:51:15;;;;;;;2.80;2.43;;;17.40;97.40;;;;;;4977031;28;20191;-92
2022/07/08 07:53:40;;;;;;;4.40;2.27;;;17.40;96.50;;;;;;4972578;28;20591;-91
2022/07/08 07:56:06;;;;;;;11.13;3.33;;;17.40;96.70;;;;;;4972678;28;20242;-92
2022/07/08 07:58:32;;;;;;;4.57;3.00;;;17.70;96.10;;;;;;4973318;28;20193;-91
2022/07/08 08:00:58;;;;;;;6.37;3.07;;;17.60;95.60;;;;;;4969017;28;20196;-90
2022/07/08 08:03:23;;;;;;;3.53;2.43;;;17.80;95.50;;;;;;4967993;28;20504;-89
2022/07/08 08:05:49;;;;;;;3.20;2.90;;;17.90;94.80;;;;;;4976897;28;20816;-93
2022/07/08 08:08:17;;;;;;;7.30;2.77;;;18.40;95.70;;;;;;4972789;28;20871;-93
2022/07/08 08:10:42;;;;;;;3.90;2.50;;;18.80;96.30;;;;;;4973960;28;20214;-88
2022/07/08 08:13:10;;;;;;;5.90;2.67;;;18.70;93.90;;;;;;4996111;28;20448;-88
2022/07/08 08:15:36;;;;;;;4.73;2.73;;;18.30;94.10;;;;;;4963887;28;20297;-95
2022/07/08 08:18:02;;;;;;;4.37;2.47;;;17.80;94.10;;;;;;4977597;28;20956;-92
2022/07/08 08:20:29;;;;;;;3.10;2.20;;;18.00;95.80;;;;;;4976433;28;20565;-89
2022/07/08 08:22:58;;;;;;;3.67;3.20;;;17.70;94.00;;;;;;4970485;28;20183;-91
2022/07/08 08:25:24;;;;;;;4.73;2.40;;;17.70;94.80;;;;;;4968192;28;21058;-90
2022/07/08 08:27:50;;;;;;;3.63;2.83;;;17.30;94.60;;;;;;4983533;28;20440;-93
2022/07/08 08:30:17;;;;;;;4.80;2.60;;;17.50;96.60;;;;;;4966079;28;20204;-95
2022/07/08 08:32:42;;;;;;;4.50;2.50;;;17.60;94.70;;;;;;5010063;28;20883;-94
2022/07/08 08:35:09;;;;;;;4.67;2.40;;;17.00;94.70;;;;;;4977527;28;20443;-96
2022/07/08 08:37:35;;;;;;;2.73;2.47;;;17.00;97.20;;;;;;4978349;28;21496;-96
2022/07/08 08:40:12;;;;;;;3.87;2.43;;;17.20;94.30;;;;;;5016052;28;21045;-96
2022/07/08 08:42:43;;;;;;;4.10;2.40;;;17.00;94.60;;;;;;4982017;28;20533;-94
2022/07/08 08:45:09;;;;;;;7.20;2.40;;;17.10;94.80;;;;;;4977465;28;20578;-94
2022/07/08 08:47:36;;;;;;;4.00;2.37;;;17.20;93.40;;;;;;4986002;28;20490;-94
2022/07/08 08:52:52;;;;;;;4.50;2.03;;;17.60;93.70;;;;;;4985530;28;21350;-91
2022/07/08 08:55:30;;;;;;;3.00;2.17;;;17.10;93.60;;;;;;4974697;28;20444;-90
2022/07/08 08:57:58;;;;;;;4.33;2.70;;;16.80;94.40;;;;;;4985879;28;20452;-93
2022/07/08 09:00:25;;;;;;;4.60;2.20;;;16.70;94.40;;;;;;4982637;28;20511;-93
2022/07/08 09:02:52;;;;;;;5.80;2.60;;;16.60;94.00;;;;;;4979886;28;20435;-91
2022/07/08 09:05:20;;;;;;;2.83;2.03;;;16.50;95.00;;;;;;4987495;28;20578;-95
2022/07/08 09:07:46;;;;;;;3.90;2.20;;;16.60;94.70;;;;;;4981807;28;20788;-94
2022/07/08 09:10:17;;;;;;;2.93;2.47;;;16.50;94.80;;;;;;4977904;28;20520;-94
2022/07/08 09:13:08;;;;;;;4.37;2.33;;;16.50;94.80;;;;;;4985294;28;20195;-96
2022/07/08 09:15:45;;;;;;;2.80;1.93;;;16.90;96.00;;;;;;4999171;28;20613;-95
2022/07/08 09:18:12;;;;;;;4.30;1.97;;;17.50;94.20;;;;;;4990509;28;20436;-96
2022/07/08 09:20:39;;;;;;;3.60;2.57;;;18.10;93.00;;;;;;4989572;28;20475;-91
2022/07/08 09:23:07;;;;;;;5.83;2.40;;;18.00;92.60;;;;;;5003593;28;20451;-94
2022/07/08 09:25:33;;;;;;;3.90;2.23;;;18.00;92.70;;;;;;4997648;28;20496;-90
2022/07/08 09:27:59;;;;;;;4.57;2.10;;;18.10;92.60;;;;;;4998896;28;20458;-96
2022/07/08 09:30:30;;;;;;;3.53;2.40;;;18.10;93.50;;;;;;4978252;28;20276;-96
2022/07/08 09:33:00;;;;;;;2.57;2.30;;;18.10;92.90;;;;;;4983828;28;20654;-95
2022/07/08 09:35:37;;;;;;;3.13;2.10;;;17.90;92.20;;;;;;4971419;28;20541;-96
2022/07/08 09:38:05;;;;;;;7.90;2.43;;;17.80;92.80;;;;;;4982597;28;20447;-95
2022/07/08 09:40:30;;;;;;;2.80;2.50;;;18.10;93.50;;;;;;4978815;28;20443;-95
2022/07/08 09:42:59;;;;;;;3.43;2.20;;;18.50;92.90;;;;;;4993012;28;20509;-93
2022/07/08 09:45:33;;;;;;;2.37;2.17;;;18.70;91.00;;;;;;4979073;28;20224;-96
2022/07/08 09:48:19;;;;;;;2.63;2.20;;;18.70;92.00;;;;;;4988544;28;20473;-94
2022/07/08 09:50:53;;;;;;;2.27;2.07;;;18.90;91.70;;;;;;4992043;28;20458;-96
2022/07/08 09:56:03;;;;;;;5.10;1.93;;;19.90;92.30;;;;;;4959682;28;20473;-95
2022/07/08 09:58:30;;;;;;;5.33;2.60;;;20.20;93.20;;;;;;4950223;28;20442;-95
2022/07/08 10:00:58;;;;;;;2.87;1.67;;;20.60;90.90;;;;;;4944537;28;20547;-92
2022/07/08 10:03:24;;;;;;;3.53;2.00;;;19.90;91.00;;;;;;4927037;28;20824;-90
2022/07/08 10:05:51;;;;;;;4.90;2.30;;;19.80;92.70;;;;;;4931522;28;20779;-92
2022/07/08 10:08:18;;;;;;;5.83;2.90;;;19.80;90.00;;;;;;4950302;28;20524;-88
2022/07/08 10:10:57;;;;;;;4.17;2.10;;;19.60;91.20;;;;;;4934804;28;20836;-89
2022/07/08 10:14:05;;;;;;;1.77;1.67;;;19.90;90.40;;;;;;4945165;28;20442;-88
2022/07/08 10:16:33;;;;;;;5.20;2.13;;;19.60;87.70;;;;;;4938792;28;20445;-90
2022/07/08 10:18:59;;;;;;;3.60;2.10;;;20.00;91.40;;;;;;4935219;28;20441;-89
2022/07/08 10:21:34;;;;;;;4.00;2.17;;;20.20;91.70;;;;;;4938886;28;20464;-92
2022/07/08 10:24:03;;;;;;;3.57;2.10;;;20.60;92.70;;;;;;4943592;28;20473;-89
2022/07/08 10:26:36;;;;;;;4.07;1.97;;;20.70;93.10;;;;;;4939785;28;20447;-87
2022/07/08 10:29:12;;;;;;;3.13;2.67;;;20.80;90.80;;;;;;4955755;28;20452;-88
2022/07/08 10:31:51;;;;;;;3.90;2.47;;;21.10;91.00;;;;;;4954417;28;20437;-88
2022/07/08 10:34:21;;;;;;;5.03;2.70;;;21.20;90.40;;;;;;4940403;28;20632;-88
2022/07/08 10:36:53;;;;;;;3.47;2.47;;;21.20;86.80;;;;;;4958137;28;20448;-88
2022/07/08 10:39:26;;;;;;;3.50;2.13;;;21.30;91.30;;;;;;4942284;28;20445;-89
2022/07/08 10:42:19;;;;;;;3.00;2.03;;;21.80;89.00;;;;;;4950612;28;20438;-88
2022/07/08 10:44:45;;;;;;;4.50;2.03;;;22.00;86.10;;;;;;4936976;28;20470;-92
2022/07/08 10:47:33;;;;;;;3.40;1.93;;;21.60;83.70;;;;;;4955605;28;20492;-88
2022/07/08 10:50:07;;;;;;;2.60;2.27;;;20.90;88.80;;;;;;4943410;28;20197;-89
2022/07/08 10:52:41;;;;;;;3.97;1.90;;;21.10;85.90;;;;;;4958358;28;20442;-88
2022/07/08 10:55:08;;;;;;;6.07;2.03;;;21.20;86.30;;;;;;4955277;28;20452;-88
2022/07/08 10:57:36;;;;;;;3.03;1.90;;;21.40;87.70;;;;;;4952696;28;20478;-86
2022/07/08 11:00:05;;;;;;;3.63;1.97;;;21.20;87.60;;;;;;4952902;28;20442;-91
2022/07/08 11:02:31;;;;;;;2.27;1.67;;;21.50;86.60;;;;;;4944881;28;20473;-89
2022/07/08 11:04:57;;;;;;;5.40;2.53;;;21.80;87.60;;;;;;4940499;28;20552;-87
2022/07/08 11:07:28;;;;;;;2.63;2.33;;;21.70;88.30;;;;;;4939644;28;20306;-89
2022/07/08 11:10:08;;;;;;;7.67;2.37;;;21.80;89.30;;;;;;4955148;28;20444;-90
2022/07/08 11:12:41;;;;;;;2.77;1.63;;;22.00;85.50;;;;;;4940292;28;21186;-91
2022/07/08 11:15:12;;;;;;;6.13;2.17;;;22.20;84.70;;;;;;4937881;28;20505;-88
2022/07/08 11:17:40;;;;;;;3.70;2.30;;;22.50;83.30;;;;;;4941159;28;20508;-89
2022/07/08 11:20:15;;;;;;;5.37;2.20;;;21.50;80.70;;;;;;4941955;28;20578;-89
2022/07/08 11:22:43;;;;;;;2.83;2.20;;;20.70;84.20;;;;;;4958285;28;20441;-91
2022/07/08 11:25:11;;;;;;;3.00;1.90;;;20.80;83.90;;;;;;4944885;28;20505;-92
2022/07/08 11:27:37;;;;;;;4.13;2.10;;;20.70;86.80;;;;;;4944356;28;20531;-92
2022/07/08 11:30:13;;;;;;;3.63;2.10;;;21.30;84.30;;;;;;4942890;28;20453;-91
2022/07/08 11:32:40;;;;;;;3.40;2.00;;;21.50;83.90;;;;;;4945627;28;20463;-88
2022/07/08 11:35:24;;;;;;;3.07;2.23;;;21.40;85.80;;;;;;4940321;28;20445;-91
2022/07/08 11:37:49;;;;;;;1.87;1.77;;;21.30;83.90;;;;;;4959416;28;20453;-88
2022/07/08 11:40:16;;;;;;;2.67;2.13;;;22.00;87.20;;;;;;4947285;28;20488;-88
2022/07/08 11:43:06;;;;;;;3.73;2.23;;;22.00;83.70;;;;;;4942249;28;20195;-92
2022/07/08 11:45:32;;;;;;;3.50;2.17;;;21.50;79.00;;;;;;4943511;28;20517;-93
2022/07/08 11:48:05;;;;;;;3.57;1.80;;;22.10;85.50;;;;;;4947578;28;20441;-91
2022/07/08 11:50:32;;;;;;;2.13;1.60;;;22.20;85.40;;;;;;4960813;28;20449;-93
2022/07/08 11:53:21;;;;;;;2.40;1.77;;;22.20;83.10;;;;;;4946571;28;20445;-93
2022/07/08 11:55:47;;;;;;;3.40;2.00;;;22.40;83.40;;;;;;4948042;28;20967;-95
2022/07/08 11:58:22;;;;;;;2.63;1.80;;;22.50;82.50;;;;;;4945384;28;20496;-91
2022/07/08 12:01:01;;;;;;;3.83;2.23;;;21.60;80.80;;;;;;4965841;28;20190;-93
2022/07/08 12:03:27;;;;;;;2.90;1.60;;;21.50;81.10;;;;;;4948601;28;20456;-91
2022/07/08 12:05:53;;;;;;;2.90;1.80;;;21.80;83.40;;;;;;4942365;28;20842;-94
2022/07/08 12:08:19;;;;;;;2.93;1.70;;;22.80;84.70;;;;;;4949310;28;20441;-94
2022/07/08 12:10:45;;;;;;;2.27;2.00;;;22.20;80.90;;;;;;4949817;28;20193;-93
2022/07/08 12:13:19;;;;;;;4.47;1.73;;;22.70;84.80;;;;;;4947734;28;20194;-91
2022/07/08 12:15:44;;;;;;;4.07;1.83;;;22.90;80.40;;;;;;4948877;28;20446;-91
2022/07/08 12:18:11;;;;;;;3.17;1.80;;;22.40;77.30;;;;;;4950023;28;20449;-91
2022/07/08 12:20:42;;;;;;;3.07;1.80;;;21.90;76.90;;;;;;4966173;28;20178;-93
2022/07/08 12:23:12;;;;;;;3.60;1.90;;;21.90;82.10;;;;;;4960019;28;20528;-93
2022/07/08 12:25:49;;;;;;;3.07;2.00;;;22.30;82.30;;;;;;4950452;28;20912;-92
2022/07/08 12:28:24;;;;;;;2.30;1.60;;;22.40;81.00;;;;;;4953492;28;21078;-93
2022/07/08 12:30:52;;;;;;;2.50;1.77;;;22.60;81.50;;;;;;4950925;28;20448;-92
2022/07/08 12:33:38;;;;;;;4.00;2.10;;;23.00;80.10;;;;;;4968846;28;20766;-92
2022/07/08 12:36:27;;;;;;;4.33;2.07;;;23.40;83.20;;;;;;4965069;28;20790;-92
2022/07/08 12:38:54;;;;;;;3.73;1.80;;;23.50;80.60;;;;;;4965805;28;21816;-93
2022/07/08 12:41:23;;;;;;;4.03;1.80;;;23.40;75.60;;;;;;4944585;28;21061;-93
2022/07/08 12:43:48;;;;;;;6.27;2.10;;;23.20;86.50;;;;;;4965846;28;20446;-93
2022/07/08 12:46:20;;;;;;;2.23;1.80;;;23.70;80.40;;;;;;4952945;28;20452;-95
2022/07/08 12:49:08;;;;;;;1.70;1.60;;;23.30;73.50;;;;;;4969222;28;20337;-95
2022/07/08 12:52:02;;;;;;;2.50;1.40;;;23.50;83.60;;;;;;4952336;28;20511;-93
2022/07/08 12:54:53;;;;;;;1.53;1.30;;;23.60;78.00;;;;;;4969943;28;20510;-95
2022/07/08 12:57:43;;;;;;;;;;;;;;;;;;;;;
2022/07/08 13:00:09;;;;;;;1.57;1.47;;;23.20;76.30;;;;;;4970342;28;20484;-92